Time;durP1;ratioP1;P1;durP2;ratioP2;P2;SDS_P1;SDS_P2;PMS_P1;PMS_P2;Temp;Humidity;BMP_temperature;BMP_pressure;BME280_temperature;BME280_humidity;BME280_pressure;Samples;Min_cycle;Max_cycle;Signal;HPM_P1;HPM_P2
2022/07/23 00:01:56;;;;;;;7.85;5.22;;;;;;;24.36;64.42;98635.41;5065370;28;20017;-65
2022/07/23 00:04:21;;;;;;;9.23;5.15;;;;;;;24.31;64.82;98640.19;5067155;28;20035;-65
2022/07/23 00:06:46;;;;;;;8.35;5.32;;;;;;;24.33;64.02;98632.44;5064440;28;20103;-64
2022/07/23 00:09:11;;;;;;;6.93;5.00;;;;;;;24.22;65.21;98634.50;5069838;28;20036;-64
2022/07/23 00:11:37;;;;;;;7.43;4.60;;;;;;;24.31;63.91;98629.94;5062694;28;20494;-64
2022/07/23 00:14:02;;;;;;;8.82;4.65;;;;;;;24.32;63.94;98634.38;5074787;28;20024;-64
2022/07/23 00:16:27;;;;;;;7.32;4.88;;;;;;;24.33;63.02;98619.41;5072131;28;20485;-64
2022/07/23 00:18:53;;;;;;;10.43;5.97;;;;;;;24.35;62.67;98624.66;5072153;28;20024;-64
2022/07/23 00:21:18;;;;;;;6.65;4.60;;;;;;;24.34;62.40;98623.00;5073596;28;20016;-64
2022/07/23 00:23:43;;;;;;;8.60;4.95;;;;;;;24.39;61.20;98609.94;5065125;28;20086;-65
2022/07/23 00:26:08;;;;;;;6.47;4.85;;;;;;;24.46;60.13;98635.28;5070823;28;20023;-64
2022/07/23 00:28:34;;;;;;;7.70;4.28;;;;;;;24.50;59.74;98613.41;5066731;28;20120;-64
2022/07/23 00:30:59;;;;;;;7.07;4.15;;;;;;;24.46;59.56;98609.59;5070731;28;20048;-65
2022/07/23 00:33:25;;;;;;;7.22;4.97;;;;;;;24.36;59.56;98605.00;5059750;28;20059;-65
2022/07/23 00:35:50;;;;;;;4.63;3.85;;;;;;;24.41;59.87;98612.41;5057416;28;20032;-65
2022/07/23 00:38:15;;;;;;;6.55;4.00;;;;;;;24.41;59.36;98606.88;5082408;28;20016;-65
2022/07/23 00:40:41;;;;;;;6.90;4.28;;;;;;;24.39;58.88;98598.03;5078021;28;20028;-65
2022/07/23 00:43:07;;;;;;;6.22;4.38;;;;;;;24.43;59.03;98593.56;5079562;28;20019;-65
2022/07/23 00:45:32;;;;;;;5.65;4.30;;;;;;;24.41;58.49;98595.81;5065744;28;20029;-65
2022/07/23 00:47:58;;;;;;;5.65;4.07;;;;;;;24.31;57.95;98579.34;5070402;28;20470;-65
2022/07/23 00:50:24;;;;;;;6.18;4.07;;;;;;;24.37;57.80;98592.00;5074471;28;20020;-65
2022/07/23 00:52:50;;;;;;;5.22;3.70;;;;;;;24.35;57.67;98591.47;5064212;28;20806;-65
2022/07/23 00:55:15;;;;;;;5.03;3.65;;;;;;;24.37;57.13;98594.78;5069495;28;20120;-64
2022/07/23 00:57:41;;;;;;;4.75;3.72;;;;;;;24.27;56.78;98574.44;5078983;28;20111;-65
2022/07/23 01:00:10;;;;;;;4.93;3.83;;;;;;;24.29;57.17;98590.75;5064914;28;20464;-65
2022/07/23 01:02:35;;;;;;;;;;;;;;;24.22;57.40;98595.81;5069658;28;20028;-65
2022/07/23 01:05:01;;;;;;;4.63;3.43;;;;;;;24.11;57.80;98600.66;5060032;28;19927;-64
2022/07/23 01:07:27;;;;;;;4.53;3.55;;;;;;;24.01;58.69;98611.84;5057355;28;20332;-65
2022/07/23 01:09:54;;;;;;;5.40;3.97;;;;;;;23.89;59.13;98623.31;5062914;28;20032;-65
2022/07/23 01:12:19;;;;;;;5.00;3.63;;;;;;;23.87;59.23;98617.28;5059889;28;20028;-65
2022/07/23 01:14:45;;;;;;;5.40;3.58;;;;;;;23.79;59.53;98609.66;5064456;28;20099;-65
2022/07/23 01:17:10;;;;;;;3.95;3.38;;;;;;;23.71;59.17;98608.31;5067335;28;20112;-65
2022/07/23 01:19:35;;;;;;;4.20;3.65;;;;;;;23.68;59.20;98600.59;5068605;28;20055;-65
2022/07/23 01:22:03;;;;;;;5.07;3.70;;;;;;;23.73;58.74;98592.28;5056045;28;20020;-65
2022/07/23 01:24:28;;;;;;;5.40;3.30;;;;;;;23.72;58.74;98598.94;5064032;28;20093;-65
2022/07/23 01:26:54;;;;;;;4.18;3.42;;;;;;;23.78;58.85;98595.00;5068707;28;20024;-65
2022/07/23 01:29:20;;;;;;;7.82;3.70;;;;;;;23.76;59.04;98590.88;5065964;28;20032;-65
2022/07/23 01:31:46;;;;;;;5.97;3.17;;;;;;;23.80;58.46;98581.72;5054119;28;20021;-65
2022/07/23 01:34:12;;;;;;;5.60;3.67;;;;;;;23.71;59.18;98586.22;5061906;28;20035;-65
2022/07/23 01:36:38;;;;;;;4.18;3.30;;;;;;;23.74;58.82;98590.38;5062867;28;20409;-65
2022/07/23 01:39:04;;;;;;;4.78;3.65;;;;;;;23.76;58.88;98586.19;5074970;28;20521;-65
2022/07/23 01:41:30;;;;;;;3.97;3.30;;;;;;;23.82;58.86;98573.94;5090394;28;20111;-65
2022/07/23 01:43:56;;;;;;;5.43;3.40;;;;;;;23.69;59.80;98547.03;5070462;28;20095;-64
2022/07/23 01:46:21;;;;;;;5.15;3.47;;;;;;;23.57;61.46;98563.19;5070393;28;20103;-65
2022/07/23 01:48:46;;;;;;;5.57;3.70;;;;;;;23.39;63.55;98568.34;5064708;28;20099;-64
2022/07/23 01:51:12;;;;;;;7.15;3.58;;;;;;;23.38;62.96;98577.75;5081777;28;20032;-63
2022/07/23 01:53:37;;;;;;;6.65;3.90;;;;;;;23.23;62.09;98566.88;5062983;28;20054;-64
2022/07/23 01:56:03;;;;;;;5.88;3.72;;;;;;;23.38;61.85;98576.94;5075785;28;20139;-63
2022/07/23 01:58:29;;;;;;;5.25;3.58;;;;;;;23.35;62.64;98575.59;5069587;28;20040;-64
2022/07/23 02:00:55;;;;;;;7.05;4.13;;;;;;;23.28;63.35;98580.63;5068245;28;20028;-63
2022/07/23 02:03:20;;;;;;;5.60;3.80;;;;;;;23.06;64.33;98566.50;5061021;28;20502;-64
2022/07/23 02:05:46;;;;;;;6.60;3.70;;;;;;;23.02;64.74;98570.97;5069609;28;20043;-64
2022/07/23 02:08:11;;;;;;;5.05;4.00;;;;;;;22.95;65.81;98583.13;5077121;28;20426;-64
2022/07/23 02:10:36;;;;;;;6.22;3.50;;;;;;;22.89;65.98;98597.25;5072608;28;20473;-64
2022/07/23 02:13:02;;;;;;;4.80;3.53;;;;;;;22.71;66.20;98584.97;5061310;28;20025;-64
2022/07/23 02:15:28;;;;;;;8.02;4.20;;;;;;;22.78;65.58;98603.97;5063198;28;20037;-64
2022/07/23 02:17:54;;;;;;;8.15;3.58;;;;;;;22.60;67.17;98608.25;5060621;28;20020;-64
2022/07/23 02:20:19;;;;;;;5.97;3.80;;;;;;;22.48;68.37;98622.41;5065810;28;20563;-65
2022/07/23 02:22:44;;;;;;;5.68;3.50;;;;;;;22.44;68.98;98600.06;5062741;28;20508;-65
2022/07/23 02:25:10;;;;;;;6.03;4.07;;;;;;;22.53;69.04;98603.03;5068470;28;20031;-65
2022/07/23 02:27:36;;;;;;;5.35;3.70;;;;;;;22.35;70.88;98609.22;5066121;28;20031;-65
2022/07/23 02:30:02;;;;;;;5.40;3.67;;;;;;;22.25;73.17;98607.38;5073477;28;20031;-65
2022/07/23 02:32:27;;;;;;;8.15;4.72;;;;;;;22.07;73.94;98611.56;5068018;28;20025;-64
2022/07/23 02:34:53;;;;;;;6.55;4.00;;;;;;;22.09;75.24;98609.38;5060661;28;20036;-65
2022/07/23 02:37:18;;;;;;;7.05;3.78;;;;;;;21.88;75.36;98617.72;5075716;28;20028;-65
2022/07/23 02:39:44;;;;;;;5.65;4.07;;;;;;;21.92;75.21;98640.00;5078761;28;20036;-65
2022/07/23 02:42:09;;;;;;;5.53;3.90;;;;;;;21.94;76.86;98662.59;5067067;28;20396;-65
2022/07/23 02:44:35;;;;;;;7.13;4.32;;;;;;;21.87;78.62;98662.88;5059032;28;20031;-64
2022/07/23 02:47:00;;;;;;;8.05;4.45;;;;;;;21.82;79.08;98659.31;5058905;28;20035;-65
2022/07/23 02:49:25;;;;;;;6.68;4.95;;;;;;;21.81;77.77;98649.41;5066175;28;20024;-64
2022/07/23 02:51:51;;;;;;;5.25;3.97;;;;;;;21.71;78.35;98655.78;5063885;28;20029;-64
2022/07/23 02:54:17;;;;;;;8.07;4.07;;;;;;;21.58;78.09;98637.91;5062590;28;20032;-64
2022/07/23 02:56:42;;;;;;;5.50;4.03;;;;;;;21.48;77.78;98632.44;5071605;28;20029;-64
2022/07/23 02:59:07;;;;;;;5.38;3.72;;;;;;;21.70;77.64;98667.91;5061574;28;20512;-64
2022/07/23 03:01:33;;;;;;;8.25;4.10;;;;;;;21.67;78.13;98677.53;5069420;28;20029;-64
2022/07/23 03:03:58;;;;;;;4.95;3.78;;;;;;;21.61;78.77;98664.91;5062805;28;20734;-64
2022/07/23 03:06:23;;;;;;;6.55;4.03;;;;;;;21.63;78.98;98687.47;5070071;28;20056;-64
2022/07/23 03:08:49;;;;;;;4.90;3.78;;;;;;;21.54;79.14;98669.88;5070540;28;20084;-64
2022/07/23 03:11:14;;;;;;;6.72;3.67;;;;;;;21.59;79.07;98686.38;5078614;28;20241;-64
2022/07/23 03:13:40;;;;;;;5.97;3.55;;;;;;;21.60;79.45;98674.25;5058871;28;20028;-65
2022/07/23 03:16:06;;;;;;;7.05;3.85;;;;;;;21.58;79.80;98687.47;5069874;28;20028;-64
2022/07/23 03:18:32;;;;;;;7.50;3.80;;;;;;;21.57;79.72;98680.31;5060889;28;20055;-65
2022/07/23 03:20:58;;;;;;;5.07;3.88;;;;;;;21.56;80.04;98686.09;5064047;28;20062;-64
2022/07/23 03:23:23;;;;;;;5.65;3.70;;;;;;;21.53;80.13;98684.72;5082115;28;20415;-64
2022/07/23 03:25:48;;;;;;;4.97;3.58;;;;;;;21.56;80.34;98683.34;5083363;28;20024;-64
2022/07/23 03:28:18;;;;;;;4.68;3.72;;;;;;;21.56;80.46;98688.84;5071721;28;20028;-64
2022/07/23 03:30:46;;;;;;;6.10;4.28;;;;;;;21.55;80.75;98693.53;5054763;28;20028;-65
2022/07/23 03:33:16;;;;;;;6.18;3.88;;;;;;;21.32;81.56;98663.81;5056614;28;20103;-65
2022/07/23 03:35:42;;;;;;;7.50;4.00;;;;;;;21.46;82.08;98686.97;5067670;28;20478;-64
2022/07/23 03:38:07;;;;;;;9.25;4.25;;;;;;;21.40;82.86;98686.09;5055128;28;20055;-65
2022/07/23 03:40:33;;;;;;;6.25;4.13;;;;;;;21.37;83.26;98685.81;5070061;28;21246;-64
2022/07/23 03:42:58;;;;;;;6.82;4.47;;;;;;;21.37;83.15;98691.31;5068196;28;20017;-64
2022/07/23 03:45:23;;;;;;;8.13;4.15;;;;;;;21.27;84.76;98692.16;5078434;28;20031;-64
2022/07/23 03:47:48;;;;;;;6.82;4.35;;;;;;;21.28;85.25;98693.81;5069649;28;20104;-64
2022/07/23 03:50:14;;;;;;;5.40;3.97;;;;;;;21.20;86.44;98695.19;5070236;28;20035;-65
2022/07/23 03:52:39;;;;;;;4.50;3.92;;;;;;;21.10;87.59;98697.94;5062132;28;20024;-65
2022/07/23 03:55:05;;;;;;;6.82;4.05;;;;;;;21.09;87.52;98696.31;5056659;28;20036;-64
2022/07/23 03:57:30;;;;;;;4.85;3.88;;;;;;;21.04;87.55;98693.53;5063031;28;20032;-64
2022/07/23 03:59:56;;;;;;;6.38;3.90;;;;;;;21.19;87.29;98701.78;5075444;28;20024;-64
2022/07/23 04:02:21;;;;;;;7.82;3.90;;;;;;;21.26;86.42;98700.69;5074529;28;20543;-65
2022/07/23 04:04:47;;;;;;;5.07;3.80;;;;;;;21.35;85.92;98699.03;5069392;28;20028;-64
2022/07/23 04:07:12;;;;;;;5.20;3.50;;;;;;;21.29;85.83;98695.44;5060863;28;20029;-64
2022/07/23 04:09:40;;;;;;;5.40;3.83;;;;;;;21.31;86.95;98706.19;5068489;28;20142;-64
2022/07/23 04:12:06;;;;;;;5.60;3.47;;;;;;;21.19;88.73;98701.78;5066836;28;20028;-64
2022/07/23 04:14:31;;;;;;;8.00;3.97;;;;;;;21.21;88.86;98704.28;5077735;28;20457;-64
2022/07/23 04:16:56;;;;;;;4.72;3.75;;;;;;;21.19;89.62;98704.53;5078719;28;20029;-65
2022/07/23 04:19:21;;;;;;;8.02;3.83;;;;;;;21.18;90.29;98699.31;5065319;28;20042;-64
2022/07/23 04:21:47;;;;;;;5.50;3.88;;;;;;;21.17;90.05;98706.75;5059458;28;20471;-64
2022/07/23 04:24:12;;;;;;;6.18;3.63;;;;;;;21.34;88.68;98708.38;5057202;28;20036;-64
2022/07/23 04:26:37;;;;;;;6.75;3.63;;;;;;;21.43;88.38;98712.25;5066887;28;20029;-64
2022/07/23 04:29:02;;;;;;;5.13;4.05;;;;;;;21.50;87.76;98714.75;5072657;28;20024;-64
2022/07/23 04:31:28;;;;;;;4.97;3.85;;;;;;;21.61;86.64;98713.63;5074117;28;20028;-64
2022/07/23 04:33:53;;;;;;;7.43;4.18;;;;;;;21.60;85.69;98698.22;5059326;28;20032;-66
2022/07/23 04:36:18;;;;;;;5.32;3.70;;;;;;;21.75;85.45;98717.47;5071728;28;20051;-66
2022/07/23 04:38:44;;;;;;;6.60;3.35;;;;;;;21.86;84.02;98715.50;5057631;28;20039;-65
2022/07/23 04:41:09;;;;;;;4.88;3.33;;;;;;;21.95;83.63;98718.50;5071145;28;20036;-66
2022/07/23 04:43:34;;;;;;;6.22;3.47;;;;;;;21.97;82.56;98717.13;5064447;28;20116;-66
2022/07/23 04:45:59;;;;;;;8.50;4.13;;;;;;;22.05;81.96;98729.50;5066008;28;20066;-66
2022/07/23 04:48:25;;;;;;;5.05;3.85;;;;;;;22.07;83.16;98722.59;5069442;28;20764;-64
2022/07/23 04:50:50;;;;;;;5.95;3.53;;;;;;;22.15;82.13;98726.69;5062465;28;20027;-64
2022/07/23 04:53:15;;;;;;;6.43;3.70;;;;;;;22.23;81.13;98719.81;5070420;28;20523;-65
2022/07/23 04:55:41;;;;;;;4.20;3.15;;;;;;;22.24;81.60;98718.69;5077773;28;20028;-64
2022/07/23 04:58:06;;;;;;;8.30;4.28;;;;;;;22.25;83.27;98725.88;5067657;28;20040;-65
2022/07/23 05:00:31;;;;;;;4.45;3.53;;;;;;;22.27;83.86;98737.47;5060044;28;20020;-64
2022/07/23 05:02:57;;;;;;;4.40;3.40;;;;;;;22.46;82.39;98751.44;5072168;28;20107;-64
2022/07/23 05:05:22;;;;;;;6.82;4.47;;;;;;;22.60;81.35;98744.19;5070125;28;20024;-63
2022/07/23 05:07:48;;;;;;;4.80;4.18;;;;;;;22.70;79.70;98754.34;5081377;28;20055;-63
2022/07/23 05:10:13;;;;;;;5.05;3.97;;;;;;;22.80;78.64;98753.47;5068895;28;20134;-64
2022/07/23 05:12:38;;;;;;;11.43;4.95;;;;;;;22.86;77.04;98750.38;5059049;28;20528;-63
2022/07/23 05:15:04;;;;;;;5.93;4.05;;;;;;;22.99;75.93;98734.34;5067381;28;20028;-63
2022/07/23 05:17:29;;;;;;;9.27;4.18;;;;;;;23.07;75.36;98737.28;5059972;28;20045;-66
2022/07/23 05:19:54;;;;;;;6.70;4.30;;;;;;;23.15;72.75;98739.44;5075935;28;20044;-65
2022/07/23 05:22:20;;;;;;;7.07;4.15;;;;;;;23.29;70.88;98731.34;5076580;28;20099;-65
2022/07/23 05:24:45;;;;;;;4.38;3.63;;;;;;;23.29;69.57;98730.50;5083938;28;20031;-65
2022/07/23 05:27:10;;;;;;;5.32;4.20;;;;;;;23.31;68.90;98731.88;5066354;28;20047;-63
2022/07/23 05:29:36;;;;;;;6.13;4.18;;;;;;;23.53;68.18;98736.13;5069141;28;20032;-61
2022/07/23 05:32:01;;;;;;;7.18;3.92;;;;;;;23.68;69.84;98749.75;5058983;28;20119;-61
2022/07/23 05:34:26;;;;;;;6.20;4.18;;;;;;;23.75;70.38;98747.53;5069894;28;20104;-63
2022/07/23 05:36:52;;;;;;;8.65;3.78;;;;;;;23.58;70.85;98749.88;5060550;28;20017;-65
2022/07/23 05:39:17;;;;;;;8.13;3.65;;;;;;;23.58;72.36;98759.00;5066597;28;20028;-66
2022/07/23 05:41:43;;;;;;;6.40;4.05;;;;;;;23.54;70.22;98768.13;5062010;28;20110;-64
2022/07/23 05:44:08;;;;;;;6.60;3.90;;;;;;;23.60;70.77;98767.78;5061414;28;20069;-64
2022/07/23 05:46:33;;;;;;;5.15;4.07;;;;;;;23.59;71.97;98782.72;5056321;28;20398;-62
2022/07/23 05:48:58;;;;;;;7.30;4.15;;;;;;;23.59;69.60;98790.19;5058490;28;20058;-63
2022/07/23 05:51:25;;;;;;;7.05;4.38;;;;;;;23.32;67.30;98802.53;5062985;28;20082;-63
2022/07/23 05:53:51;;;;;;;8.63;3.97;;;;;;;23.54;65.89;98801.28;5055192;28;20075;-63
2022/07/23 05:56:17;;;;;;;5.10;3.70;;;;;;;23.69;66.96;98803.09;5056588;28;20029;-62
2022/07/23 05:58:42;;;;;;;11.38;4.70;;;;;;;23.49;64.98;98812.34;5055493;28;20032;-62
2022/07/23 06:01:08;;;;;;;5.40;3.88;;;;;;;23.37;65.36;98797.00;5059668;28;20029;-63
2022/07/23 06:03:33;;;;;;;10.82;4.78;;;;;;;23.22;68.48;98818.34;5058377;28;20028;-62
2022/07/23 06:05:58;;;;;;;8.77;4.18;;;;;;;23.08;71.16;98821.75;5064334;28;20029;-62
2022/07/23 06:08:23;;;;;;;9.73;4.28;;;;;;;22.95;73.09;98831.44;5060749;28;20565;-62
2022/07/23 06:10:49;;;;;;;11.98;5.10;;;;;;;22.88;79.46;98821.81;5060239;28;20013;-62
2022/07/23 06:13:14;;;;;;;8.52;5.10;;;;;;;22.57;90.42;98815.63;5057679;28;20533;-62
2022/07/23 06:15:39;;;;;;;9.82;5.70;;;;;;;22.26;100.00;98813.78;5063129;28;20073;-62
2022/07/23 06:18:05;;;;;;;10.63;5.82;;;;;;;22.09;100.00;98807.75;5054357;28;20127;-62
2022/07/23 06:20:30;;;;;;;12.90;5.85;;;;;;;21.95;100.00;98809.41;5056431;28;20052;-62
2022/07/23 06:22:55;;;;;;;9.57;6.20;;;;;;;21.84;100.00;98800.34;5059213;28;20032;-62
2022/07/23 06:25:21;;;;;;;11.52;6.45;;;;;;;21.75;100.00;98796.50;5059062;28;20025;-62
2022/07/23 06:27:47;;;;;;;8.63;6.07;;;;;;;21.77;100.00;98784.09;5062501;28;20704;-62
2022/07/23 06:30:15;;;;;;;8.23;6.03;;;;;;;21.79;100.00;98781.06;5056800;28;21367;-62
2022/07/23 06:32:41;;;;;;;10.33;5.33;;;;;;;21.94;100.00;98789.31;5058382;28;20078;-62
2022/07/23 06:35:06;;;;;;;13.43;6.55;;;;;;;22.02;100.00;98782.41;5064916;28;20036;-62
2022/07/23 06:37:32;;;;;;;10.43;6.53;;;;;;;22.05;100.00;98782.66;5060538;28;20035;-62
2022/07/23 06:39:57;;;;;;;11.80;6.35;;;;;;;22.17;100.00;98787.88;5057676;28;20051;-62
2022/07/23 06:42:22;;;;;;;14.55;6.63;;;;;;;22.38;100.00;98794.19;5064012;28;20017;-62
2022/07/23 06:44:47;;;;;;;9.40;6.35;;;;;;;22.41;100.00;98803.81;5060475;28;20051;-62
2022/07/23 06:47:13;;;;;;;9.63;6.40;;;;;;;22.44;99.92;98798.56;5055733;28;20116;-62
2022/07/23 06:49:40;;;;;;;8.60;6.28;;;;;;;22.42;100.00;98800.78;5057204;28;20029;-62
2022/07/23 06:52:06;;;;;;;12.63;6.00;;;;;;;22.56;99.33;98805.69;5060119;28;20029;-64
2022/07/23 06:54:31;;;;;;;9.07;5.95;;;;;;;22.74;96.33;98802.28;5066915;28;20070;-64
2022/07/23 06:56:56;;;;;;;12.50;6.65;;;;;;;22.56;95.11;98825.84;5051113;28;20078;-64
2022/07/23 06:59:22;;;;;;;10.25;6.35;;;;;;;22.01;100.00;98839.44;5057277;28;20111;-65
2022/07/23 07:01:47;;;;;;;8.85;6.10;;;;;;;21.93;100.00;98837.25;5069647;28;20021;-62
2022/07/23 07:04:12;;;;;;;10.55;6.75;;;;;;;21.83;100.00;98856.53;5066070;28;20028;-68
2022/07/23 07:06:37;;;;;;;12.77;6.50;;;;;;;21.59;100.00;98912.13;5065381;28;20107;-67
2022/07/23 07:09:03;;;;;;;12.55;7.20;;;;;;;21.04;100.00;98907.25;5060256;28;20036;-65
2022/07/23 07:11:28;;;;;;;15.85;8.00;;;;;;;20.45;100.00;98872.59;5064593;28;20033;-66
2022/07/23 07:13:53;;;;;;;12.85;7.40;;;;;;;20.34;100.00;98900.00;5066598;28;20028;-65
2022/07/23 07:16:19;;;;;;;14.32;7.78;;;;;;;19.90;100.00;98894.72;5071267;28;20023;-66
2022/07/23 07:18:44;;;;;;;14.52;8.35;;;;;;;19.60;100.00;98913.66;5071605;28;20036;-65
2022/07/23 07:21:09;;;;;;;14.95;8.52;;;;;;;19.54;100.00;98918.25;5057870;28;20029;-66
2022/07/23 07:23:35;;;;;;;14.20;8.23;;;;;;;19.54;100.00;98917.44;5055193;28;20036;-63
2022/07/23 07:26:00;;;;;;;13.27;8.63;;;;;;;19.52;100.00;98903.13;5055041;28;20025;-64
2022/07/23 07:28:25;;;;;;;15.18;8.98;;;;;;;19.51;100.00;98890.50;5074931;28;20028;-65
2022/07/23 07:30:51;;;;;;;15.43;8.90;;;;;;;19.52;100.00;98878.44;5066710;28;20052;-63
2022/07/23 07:33:16;;;;;;;17.50;7.85;;;;;;;19.49;100.00;98866.91;5075652;28;20024;-67
2022/07/23 07:35:41;;;;;;;17.25;9.25;;;;;;;19.56;100.00;98865.88;5060355;28;20381;-65
2022/07/23 07:38:07;;;;;;;17.75;8.43;;;;;;;19.66;100.00;98849.50;5062350;28;20438;-63
2022/07/23 07:40:32;;;;;;;12.52;9.23;;;;;;;19.93;100.00;98841.22;5059409;28;20028;-64
2022/07/23 07:42:57;;;;;;;16.58;9.38;;;;;;;20.19;100.00;98835.91;5070031;28;20747;-64
2022/07/23 07:45:24;;;;;;;16.08;9.80;;;;;;;20.48;100.00;98850.06;5073695;28;20453;-64
2022/07/23 07:47:51;;;;;;;14.32;8.35;;;;;;;20.84;100.00;98861.28;5072524;28;20028;-65
2022/07/23 07:50:16;;;;;;;14.95;8.50;;;;;;;21.00;100.00;98852.78;5063836;28;20024;-64
2022/07/23 07:52:42;;;;;;;12.15;9.02;;;;;;;21.24;100.00;98831.09;5061560;28;20060;-65
2022/07/23 07:55:09;;;;;;;13.55;9.23;;;;;;;21.82;100.00;98841.94;5070937;28;20064;-66
2022/07/23 07:57:35;;;;;;;17.02;8.05;;;;;;;22.12;100.00;98845.75;5070917;28;20044;-64
2022/07/23 08:00:01;;;;;;;11.55;8.60;;;;;;;22.22;100.00;98844.94;5063227;28;20032;-64
2022/07/23 08:02:26;;;;;;;12.75;7.97;;;;;;;22.45;100.00;98810.41;5050570;28;20028;-64
2022/07/23 08:04:52;;;;;;;12.70;8.50;;;;;;;23.28;100.00;98859.44;5063450;28;20029;-64
2022/07/23 08:07:18;;;;;;;14.00;7.60;;;;;;;24.01;100.00;98857.81;5064591;28;20214;-63
2022/07/23 08:09:43;;;;;;;11.98;7.80;;;;;;;23.98;100.00;98839.06;5074384;28;20061;-63
2022/07/23 08:12:08;;;;;;;13.63;8.20;;;;;;;24.19;100.00;98862.63;5068790;28;20039;-66
2022/07/23 08:14:34;;;;;;;15.68;7.55;;;;;;;24.22;100.00;98861.22;5075119;28;20035;-69
2022/07/23 08:16:59;;;;;;;9.65;7.30;;;;;;;24.52;100.00;98876.66;5059958;28;20091;-68
2022/07/23 08:19:24;;;;;;;14.30;7.45;;;;;;;23.67;100.00;98869.66;5066429;28;20036;-68
2022/07/23 08:21:50;;;;;;;10.55;6.38;;;;;;;23.23;100.00;98864.97;5066868;28;20024;-68
2022/07/23 08:24:15;;;;;;;10.93;7.43;;;;;;;23.21;100.00;98878.22;5067218;28;20068;-69
2022/07/23 08:26:40;;;;;;;11.05;7.97;;;;;;;22.43;100.00;98868.59;5070063;28;20421;-69
2022/07/23 08:29:06;;;;;;;12.20;7.57;;;;;;;22.09;100.00;98877.44;5064778;28;20434;-68
2022/07/23 08:31:32;;;;;;;10.10;7.22;;;;;;;21.89;100.00;98885.72;5067955;28;20556;-68
2022/07/23 08:33:58;;;;;;;11.10;7.35;;;;;;;21.75;100.00;98887.38;5069601;28;20074;-68
2022/07/23 08:36:24;;;;;;;15.45;8.43;;;;;;;21.83;100.00;98881.31;5076037;28;20024;-66
2022/07/23 08:38:49;;;;;;;12.23;8.23;;;;;;;21.58;100.00;98874.69;5082647;28;20024;-69
2022/07/23 08:41:15;;;;;;;14.98;8.20;;;;;;;21.61;100.00;98879.66;5068028;28;20080;-69
2022/07/23 08:43:42;;;;;;;13.98;8.00;;;;;;;21.72;100.00;98904.44;5071028;28;20578;-68
2022/07/23 08:46:08;;;;;;;11.73;8.10;;;;;;;22.08;100.00;98900.56;5064066;28;20028;-65
2022/07/23 08:48:36;;;;;;;10.30;8.02;;;;;;;22.03;100.00;98919.03;5061512;28;20429;-64
2022/07/23 08:51:04;;;;;;;11.18;8.02;;;;;;;22.20;100.00;98918.81;5063512;28;20490;-67
2022/07/23 08:53:30;;;;;;;16.05;8.32;;;;;;;22.45;100.00;98924.28;5076607;28;20039;-67
2022/07/23 08:55:58;;;;;;;14.90;7.70;;;;;;;22.44;100.00;98913.53;5064708;28;20504;-67
2022/07/23 08:58:24;;;;;;;10.85;7.43;;;;;;;22.41;100.00;98889.28;5064089;28;20128;-67
2022/07/23 09:00:51;;;;;;;10.07;7.00;;;;;;;22.39;100.00;98905.28;5070300;22;20819;-57
2022/07/23 09:03:27;;;;;;;11.45;7.70;;;;;;;22.81;100.00;98898.53;5062212;28;20041;-57
2022/07/23 09:05:55;;;;;;;9.75;7.40;;;;;;;22.99;100.00;98902.66;5066658;28;20024;-57
2022/07/23 09:08:23;;;;;;;8.27;5.97;;;;;;;23.67;100.00;98899.22;5063314;28;20102;-57
2022/07/23 09:10:56;;;;;;;9.98;6.38;;;;;;;24.19;91.71;98893.03;5066936;28;20051;-57
2022/07/23 09:13:31;;;;;;;11.25;6.40;;;;;;;25.49;87.88;98889.31;5069378;28;20392;-57
2022/07/23 09:16:03;;;;;;;9.95;6.00;;;;;;;27.26;68.18;98888.38;5069564;28;20866;-57
2022/07/23 09:18:32;;;;;;;7.82;5.38;;;;;;;29.65;57.37;98887.91;5074777;28;20124;-57
2022/07/23 09:21:22;;;;;;;9.75;5.15;;;;;;;31.39;50.54;98892.19;5064237;28;20024;-58
2022/07/23 09:23:55;;;;;;;7.13;5.18;;;;;;;31.79;48.53;98900.94;5061665;28;20067;-57
2022/07/23 09:26:29;;;;;;;7.10;4.80;;;;;;;32.89;47.62;98894.88;5065310;28;20441;-57
2022/07/23 09:28:58;;;;;;;7.80;4.97;;;;;;;32.58;43.38;98905.81;5063523;28;20380;-57
2022/07/23 09:31:25;;;;;;;7.32;4.70;;;;;;;33.81;42.92;98887.75;5074375;28;20476;-57
2022/07/23 09:33:51;;;;;;;6.18;4.70;;;;;;;35.22;39.71;98881.91;5063929;28;20044;-58
2022/07/23 09:36:27;;;;;;;9.27;4.60;;;;;;;36.11;38.04;98888.69;5063081;28;20025;-58
2022/07/23 09:38:52;;;;;;;6.40;4.93;;;;;;;36.15;37.28;98885.94;5052115;28;20131;-58
2022/07/23 09:41:18;;;;;;;5.40;4.18;;;;;;;37.35;35.53;98885.63;5060514;28;20103;-58
2022/07/23 09:43:44;;;;;;;5.35;3.88;;;;;;;37.43;34.17;98890.16;5060267;28;20060;-58
2022/07/23 09:46:24;;;;;;;6.13;4.38;;;;;;;36.31;37.49;98883.81;5064384;28;20037;-58
2022/07/23 09:48:51;;;;;;;3.85;3.45;;;;;;;37.72;34.51;98885.75;5066975;28;20055;-58
2022/07/23 09:51:36;;;;;;;7.68;4.43;;;;;;;34.87;39.08;98879.84;5064902;28;20024;-58
2022/07/23 09:54:01;;;;;;;7.25;4.53;;;;;;;33.75;41.84;98880.78;5056572;28;20017;-58
2022/07/23 09:56:28;;;;;;;6.28;4.05;;;;;;;32.94;43.56;98883.41;5059740;28;20039;-57
2022/07/23 09:59:12;;;;;;;6.32;4.30;;;;;;;31.42;46.71;98889.53;5063400;28;20031;-58
2022/07/23 10:01:38;;;;;;;7.53;4.32;;;;;;;32.04;48.26;98890.69;5064567;28;20349;-58
2022/07/23 10:04:07;;;;;;;5.57;4.10;;;;;;;33.54;45.88;98889.38;5067137;28;20048;-57
2022/07/23 10:06:33;;;;;;;5.53;3.97;;;;;;;35.50;40.90;98887.38;5064498;28;20020;-57
2022/07/23 10:08:59;;;;;;;7.75;3.92;;;;;;;36.10;39.47;98886.22;5060044;28;20032;-58
2022/07/23 10:11:27;;;;;;;5.63;3.47;;;;;;;36.81;37.87;98881.94;5059766;28;20051;-58
2022/07/23 10:16:19;;;;;;;5.32;4.10;;;;;;;37.38;36.59;98887.66;5068896;28;20028;-58
2022/07/23 10:18:46;;;;;;;6.22;3.55;;;;;;;37.41;35.92;98891.75;5063490;28;20031;-57
2022/07/23 10:21:21;;;;;;;7.05;3.53;;;;;;;38.36;35.09;98879.25;5062922;28;20020;-58
2022/07/23 10:24:01;;;;;;;5.28;3.15;;;;;;;38.25;32.79;98884.78;5066323;28;20074;-58
2022/07/23 10:26:53;;;;;;;4.25;3.13;;;;;;;38.35;34.50;98888.94;5073834;28;20044;-58
2022/07/23 10:29:56;;;;;;;5.93;3.55;;;;;;;38.19;35.05;98885.53;5050631;28;20036;-57
2022/07/23 10:32:40;;;;;;;5.22;2.92;;;;;;;39.07;33.85;98881.16;5059106;28;20032;-57
2022/07/23 10:35:28;;;;;;;6.20;3.28;;;;;;;39.55;33.14;98883.91;5053271;28;20028;-57
2022/07/23 10:38:07;;;;;;;5.00;3.20;;;;;;;37.78;34.07;98883.38;5060912;28;20048;-57
2022/07/23 10:40:32;;;;;;;5.28;3.42;;;;;;;38.18;33.57;98884.72;5059585;28;20040;-57
2022/07/23 10:43:01;;;;;;;5.88;3.20;;;;;;;37.97;32.60;98876.00;5061809;28;20029;-58
2022/07/23 10:45:32;;;;;;;4.53;3.50;;;;;;;38.25;32.89;98881.16;5061660;28;20151;-58
2022/07/23 10:48:13;;;;;;;4.05;3.40;;;;;;;37.35;34.93;98881.97;5065652;28;20066;-57
2022/07/23 10:50:40;;;;;;;3.90;3.47;;;;;;;37.52;34.86;98878.63;5063072;28;20032;-57
2022/07/23 10:53:05;;;;;;;4.63;3.63;;;;;;;37.06;35.42;98878.72;5056138;28;20025;-57
2022/07/23 10:55:31;;;;;;;3.67;2.88;;;;;;;36.76;34.59;98881.41;5067258;28;20025;-57
2022/07/23 10:57:56;;;;;;;5.53;3.67;;;;;;;34.31;38.17;98873.53;5062669;28;20060;-57
2022/07/23 11:00:23;;;;;;;3.95;3.13;;;;;;;35.90;36.27;98877.78;5056100;28;20479;-57
2022/07/23 11:02:52;;;;;;;7.50;3.70;;;;;;;35.29;36.83;98867.16;5064505;28;20039;-57
2022/07/23 11:05:21;;;;;;;5.30;3.60;;;;;;;35.68;37.68;98875.69;5056893;28;20119;-55
2022/07/23 11:08:05;;;;;;;5.90;3.80;;;;;;;35.31;37.71;98874.06;5064034;28;20033;-55
2022/07/23 11:10:39;;;;;;;4.70;3.47;;;;;;;37.04;35.61;98875.47;5061134;28;20025;-55
2022/07/23 11:13:23;;;;;;;4.50;3.22;;;;;;;37.57;35.09;98880.28;5063899;28;20031;-56
2022/07/23 11:16:01;;;;;;;3.90;3.35;;;;;;;37.98;33.88;98872.78;5053782;28;20380;-56
2022/07/23 11:18:57;;;;;;;3.80;3.15;;;;;;;38.85;32.38;98878.09;5055834;28;20036;-56
2022/07/23 11:21:23;;;;;;;4.53;3.20;;;;;;;38.26;30.77;98868.66;5062019;28;20032;-55
2022/07/23 11:24:13;;;;;;;7.47;3.00;;;;;;;38.06;32.21;98871.66;5075171;28;20058;-56
2022/07/23 11:26:53;;;;;;;3.83;2.92;;;;;;;38.65;30.88;98866.25;5065172;28;20605;-56
2022/07/23 11:29:39;;;;;;;3.55;3.08;;;;;;;39.13;30.50;98860.56;5063487;28;20123;-56
2022/07/23 11:32:27;;;;;;;5.47;3.28;;;;;;;38.39;30.85;98863.53;5055639;28;20033;-55